createdAt,value
2019-04-23T00:02:30.252Z,9.40
2019-04-23T00:05:02.071Z,9.80
2019-04-23T00:07:46.138Z,9.90
2019-04-23T00:10:12.363Z,9.80
2019-04-23T00:15:16.775Z,9.80
2019-04-23T00:17:42.444Z,9.80
2019-04-23T00:20:14.722Z,9.70
2019-04-23T00:23:01.982Z,9.50
2019-04-23T00:27:59.908Z,9.20
2019-04-23T00:30:36.290Z,9.10
2019-04-23T00:33:05.823Z,9.00
2019-04-23T00:35:32.620Z,8.80
2019-04-23T00:38:05.011Z,8.70
2019-04-23T00:43:13.481Z,8.70
2019-04-23T00:45:39.833Z,8.80
2019-04-23T00:48:14.833Z,9.00
2019-04-23T00:50:44.790Z,9.00
2019-04-23T00:53:12.677Z,8.90
2019-04-23T00:55:42.725Z,9.10
2019-04-23T01:00:47.350Z,9.00
2019-04-23T01:03:17.515Z,8.90
2019-04-23T01:05:46.660Z,8.90
2019-04-23T01:08:21.764Z,8.80
2019-04-23T01:10:56.363Z,8.80
2019-04-23T01:15:59.659Z,9.00
2019-04-23T01:20:54.032Z,9.10
2019-04-23T01:23:41.850Z,9.00
2019-04-23T01:26:26.432Z,9.40
2019-04-23T01:29:01.689Z,9.30
2019-04-23T01:31:33.165Z,9.40
2019-04-23T01:34:04.650Z,9.50
2019-04-23T01:36:54.169Z,9.50
2019-04-23T01:41:41.504Z,9.50
2019-04-23T01:44:14.169Z,9.70
2019-04-23T01:49:14.181Z,9.50
2019-04-23T01:51:49.581Z,9.50
2019-04-23T01:54:19.154Z,9.50
2019-04-23T01:56:49.474Z,9.50
2019-04-23T01:59:18.349Z,9.40
2019-04-23T02:01:51.592Z,9.40
2019-04-23T02:04:22.877Z,9.40
2019-04-23T02:06:53.834Z,9.30
2019-04-23T02:09:26.815Z,9.30
2019-04-23T02:11:57.952Z,9.40
2019-04-23T02:14:33.505Z,9.40
2019-04-23T02:16:56.003Z,9.40
2019-04-23T02:19:29.358Z,9.20
2019-04-23T02:22:21.895Z,9.30
2019-04-23T02:24:41.370Z,9.20
2019-04-23T02:27:15.274Z,9.30
2019-04-23T02:29:56.000Z,9.10
2019-04-23T02:32:23.761Z,9.10
2019-04-23T02:35:01.625Z,9.20
2019-04-23T02:39:57.301Z,9.00
2019-04-23T02:42:43.310Z,9.00
2019-04-23T02:44:56.382Z,9.10
2019-04-23T02:52:33.917Z,9.10
2019-04-23T02:55:11.154Z,9.10
2019-04-23T02:57:39.185Z,9.10
2019-04-23T03:10:10.144Z,9.20
2019-04-23T03:12:41.374Z,9.20
2019-04-23T03:15:21.308Z,9.30
2019-04-23T03:20:59.512Z,9.20
2019-04-23T03:23:44.889Z,9.20
2019-04-23T03:41:23.585Z,9.10
2019-04-23T03:43:48.154Z,9.10
2019-04-23T03:51:17.276Z,9.10
2019-04-23T03:56:22.282Z,9.00
2019-04-23T04:06:42.835Z,8.80
2019-04-23T04:11:19.230Z,8.60
2019-04-23T04:14:04.787Z,8.60
2019-04-23T04:16:26.511Z,8.50
2019-04-23T04:24:25.009Z,8.30
2019-04-23T04:29:11.793Z,8.60
2019-04-23T04:31:42.500Z,8.50
2019-04-23T04:36:45.818Z,8.60
2019-04-23T04:39:03.189Z,8.50
2019-04-23T04:41:40.465Z,8.50
2019-04-23T04:49:14.994Z,8.90
2019-04-23T04:52:08.326Z,8.90
2019-04-23T04:54:21.404Z,9.00
2019-04-23T04:56:43.047Z,9.20
2019-04-23T05:02:00.357Z,9.40
2019-04-23T05:07:02.603Z,9.50
2019-04-23T05:14:45.342Z,9.30
2019-04-23T05:19:36.902Z,9.30
2019-04-23T05:22:02.939Z,9.30
2019-04-23T05:24:28.735Z,9.20
2019-04-23T05:26:55.550Z,9.30
2019-04-23T05:29:23.305Z,9.40
2019-04-23T05:31:54.989Z,9.40
2019-04-23T05:34:29.577Z,9.60
2019-04-23T05:37:00.325Z,9.70
2019-04-23T05:39:35.792Z,9.70
2019-04-23T05:42:04.438Z,9.80
2019-04-23T05:44:43.211Z,9.90
2019-04-23T05:47:15.004Z,9.90
2019-04-23T05:49:41.235Z,10.00
2019-04-23T05:52:09.689Z,10.00
2019-04-23T05:54:43.362Z,10.00
2019-04-23T05:57:09.577Z,10.00
2019-04-23T05:59:42.145Z,10.20
2019-04-23T06:02:13.252Z,10.30
2019-04-23T06:04:44.402Z,10.30
2019-04-23T06:09:52.045Z,10.40
2019-04-23T06:12:13.798Z,10.50
2019-04-23T06:14:52.456Z,10.50
2019-04-23T06:17:21.312Z,10.50
2019-04-23T06:20:01.160Z,10.50
2019-04-23T06:22:28.999Z,10.60
2019-04-23T06:27:26.064Z,10.90
2019-04-23T06:29:59.378Z,11.00
2019-04-23T06:32:35.749Z,11.00
2019-04-23T06:34:56.811Z,11.00
2019-04-23T06:40:05.122Z,11.20
2019-04-23T06:42:34.410Z,11.20
2019-04-23T06:45:25.358Z,11.20
2019-04-23T06:47:36.162Z,11.30
2019-04-23T06:50:03.572Z,11.40
2019-04-23T06:52:33.925Z,11.40
2019-04-23T06:55:15.827Z,11.50
2019-04-23T06:57:44.187Z,11.60
2019-04-23T07:00:13.947Z,11.60
2019-04-23T07:02:44.411Z,11.50
2019-04-23T07:05:11.815Z,11.60
2019-04-23T07:10:23.154Z,11.80
2019-04-23T07:12:47.132Z,11.80
2019-04-23T07:15:33.480Z,11.90
2019-04-23T07:21:00.579Z,12.00
2019-04-23T07:23:29.983Z,12.20
2019-04-23T07:26:02.493Z,12.20
2019-04-23T07:28:34.931Z,12.30
2019-04-23T07:31:03.389Z,12.30
2019-04-23T07:33:39.768Z,12.30
2019-04-23T07:36:04.563Z,12.40
2019-04-23T07:42:03.525Z,12.50
2019-04-23T07:44:36.800Z,12.60
2019-04-23T07:47:18.670Z,12.60
2019-04-23T07:49:47.146Z,12.70
2019-04-23T07:54:44.102Z,12.90
2019-04-23T07:57:15.374Z,12.90
2019-04-23T07:59:51.599Z,13.00
2019-04-23T08:02:22.017Z,13.10
2019-04-23T08:04:57.956Z,13.10
2019-04-23T08:07:18.204Z,13.20
2019-04-23T08:09:53.605Z,13.30
2019-04-23T08:14:55.310Z,13.50
2019-04-23T08:17:22.496Z,13.50
2019-04-23T08:19:56.333Z,13.50
2019-04-23T08:22:25.908Z,13.70
2019-04-23T08:25:05.044Z,13.80
2019-04-23T08:27:34.763Z,13.90
2019-04-23T08:30:04.571Z,13.90
2019-04-23T08:32:35.123Z,14.00
2019-04-23T08:35:14.432Z,14.10
2019-04-23T08:37:56.969Z,14.20
2019-04-23T08:40:17.810Z,14.30
2019-04-23T08:43:03.625Z,14.20
2019-04-23T08:48:15.467Z,14.40
2019-04-23T08:50:40.793Z,14.50
2019-04-23T08:53:23.304Z,14.80
2019-04-23T08:55:44.168Z,14.70
2019-04-23T08:58:14.150Z,14.80
2019-04-23T09:01:02.098Z,14.80
2019-04-23T09:03:30.119Z,14.90
2019-04-23T09:05:52.753Z,15.20
2019-04-23T09:08:27.834Z,15.40
2019-04-23T09:20:53.055Z,16.30
2019-04-23T09:23:34.406Z,16.30
2019-04-23T09:31:11.686Z,16.50
2019-04-23T09:33:46.629Z,16.60
2019-04-23T09:36:13.596Z,17.20
2019-04-23T09:38:55.895Z,17.30
2019-04-23T09:46:48.342Z,17.50
2019-04-23T09:49:20.570Z,17.80
2019-04-23T09:51:59.197Z,17.70
2019-04-23T09:54:21.892Z,17.60
2019-04-23T09:56:47.426Z,17.30
2019-04-23T09:59:28.725Z,17.50
2019-04-23T10:01:45.162Z,17.30
2019-04-23T10:04:08.661Z,17.90
2019-04-23T10:06:32.191Z,18.30
2019-04-23T10:09:02.113Z,18.40
2019-04-23T10:11:32.374Z,18.30
2019-04-23T10:14:02.892Z,18.40
2019-04-23T10:16:34.307Z,18.40
2019-04-23T10:19:03.851Z,18.40
2019-04-23T10:21:33.465Z,18.60
2019-04-23T10:24:03.423Z,18.20
2019-04-23T10:26:34.221Z,18.20
2019-04-23T10:29:09.910Z,18.80
2019-04-23T10:31:40.050Z,18.90
2019-04-23T10:34:10.375Z,19.10
2019-04-23T10:36:42.313Z,18.90
2019-04-23T10:39:19.561Z,18.80
2019-04-23T10:41:46.277Z,19.50
2019-04-23T10:44:17.141Z,19.30
2019-04-23T10:47:16.479Z,19.20
2019-04-23T10:54:52.297Z,20.00
2019-04-23T10:57:18.805Z,20.30
2019-04-23T10:59:53.956Z,21.00
2019-04-23T11:12:42.358Z,20.30
2019-04-23T11:15:24.117Z,20.60
2019-04-23T11:17:46.480Z,21.00
2019-04-23T11:22:45.296Z,20.90
2019-04-23T11:25:29.976Z,20.90
2019-04-23T11:27:55.381Z,21.00
2019-04-23T11:30:31.447Z,21.80
2019-04-23T11:33:08.982Z,20.70
2019-04-23T11:38:06.472Z,20.30
2019-04-23T11:40:25.547Z,20.70
2019-04-23T11:43:06.154Z,20.90
2019-04-23T11:45:32.455Z,21.40
2019-04-23T11:52:56.415Z,21.40
2019-04-23T11:55:41.190Z,21.40
2019-04-23T11:58:14.966Z,21.00
2019-04-23T12:00:46.323Z,21.30
2019-04-23T12:03:26.966Z,21.30
2019-04-23T12:06:21.910Z,21.00
2019-04-23T12:09:15.753Z,20.50
2019-04-23T12:14:24.241Z,21.20
2019-04-23T12:16:57.330Z,20.90
2019-04-23T12:19:46.081Z,21.00
2019-04-23T12:21:52.370Z,21.40
2019-04-23T12:24:40.090Z,21.10
2019-04-23T12:26:56.535Z,21.30
2019-04-23T12:29:27.811Z,21.20
2019-04-23T12:32:28.105Z,20.70
2019-04-23T12:34:49.380Z,20.90
2019-04-23T12:37:27.012Z,21.40
2019-04-23T12:39:57.159Z,22.10
2019-04-23T12:42:41.578Z,21.70
2019-04-23T12:44:58.117Z,22.40
2019-04-23T12:47:40.262Z,22.20
2019-04-23T12:52:25.297Z,23.30
2019-04-23T12:55:09.752Z,22.90
2019-04-23T12:57:29.743Z,22.30
2019-04-23T12:59:58.275Z,22.30
2019-04-23T13:02:43.565Z,22.30
2019-04-23T13:05:00.546Z,22.50
2019-04-23T13:07:38.227Z,22.70
2019-04-23T13:10:22.194Z,23.10
2019-04-23T13:15:11.365Z,22.00
2019-04-23T13:22:49.330Z,22.00
2019-04-23T13:25:19.606Z,22.70
2019-04-23T13:28:02.964Z,22.50
2019-04-23T13:30:35.543Z,22.50
2019-04-23T13:33:02.768Z,22.80
2019-04-23T13:35:42.036Z,22.50
2019-04-23T13:38:15.761Z,22.60
2019-04-23T13:40:36.476Z,22.60
2019-04-23T13:43:00.931Z,23.00
2019-04-23T13:45:56.461Z,23.40
2019-04-23T13:50:42.007Z,23.80
2019-04-23T13:55:36.309Z,23.40
2019-04-23T14:00:58.088Z,23.50
2019-04-23T14:03:19.768Z,22.90
2019-04-23T14:06:10.817Z,23.20
2019-04-23T14:11:10.801Z,24.20
2019-04-23T14:16:20.476Z,24.00
2019-04-23T14:21:20.407Z,25.40
2019-04-23T14:36:37.697Z,23.90
2019-04-23T14:53:48.431Z,23.60
2019-04-23T14:56:22.685Z,23.60
2019-04-23T15:09:04.049Z,23.40
2019-04-23T15:14:01.937Z,23.70
2019-04-23T15:16:39.335Z,23.90
2019-04-23T15:19:35.025Z,24.00
2019-04-23T15:24:30.849Z,22.80
2019-04-23T15:29:09.387Z,23.80
2019-04-23T15:34:47.267Z,23.50
2019-04-23T15:37:21.926Z,24.00
2019-04-23T15:39:42.995Z,24.10
2019-04-23T15:42:12.570Z,24.00
2019-04-23T15:44:45.352Z,24.00
2019-04-23T15:49:48.934Z,23.30
2019-04-23T15:52:10.750Z,23.00
2019-04-23T15:54:51.485Z,22.90
2019-04-23T15:57:30.703Z,23.30
2019-04-23T15:59:47.864Z,23.20
2019-04-23T16:01:50.039Z,23.40
2019-04-23T16:04:20.591Z,24.00
2019-04-23T16:06:51.801Z,24.00
2019-04-23T16:09:57.107Z,24.50
2019-04-23T16:12:16.841Z,25.20
2019-04-23T16:15:03.818Z,24.50
2019-04-23T16:20:06.180Z,22.50
2019-04-23T16:22:24.819Z,22.10
2019-04-23T16:25:08.952Z,22.90
2019-04-23T16:27:19.612Z,22.70
2019-04-23T16:30:09.690Z,22.80
2019-04-23T16:38:10.163Z,21.50
2019-04-23T16:40:33.045Z,21.70
2019-04-23T16:45:31.875Z,22.10
2019-04-23T16:48:20.252Z,21.90
2019-04-23T16:50:56.542Z,21.30
2019-04-23T16:55:52.155Z,21.60
2019-04-23T16:58:23.280Z,21.60
2019-04-23T17:00:55.850Z,21.50
2019-04-23T17:03:21.132Z,21.40
2019-04-23T17:05:50.659Z,21.20
2019-04-23T17:11:06.727Z,20.70
2019-04-23T17:13:20.244Z,20.30
2019-04-23T17:18:29.468Z,20.90
2019-04-23T17:23:31.237Z,20.80
2019-04-23T17:31:18.817Z,20.10
2019-04-23T17:33:38.331Z,19.80
2019-04-23T17:41:26.699Z,19.50
2019-04-23T17:43:59.765Z,19.20
2019-04-23T17:46:27.323Z,19.20
2019-04-23T17:48:56.560Z,19.20
2019-04-23T17:51:28.165Z,19.00
2019-04-23T17:54:10.880Z,18.90
2019-04-23T17:59:04.380Z,18.40
2019-04-23T18:01:41.231Z,18.30
2019-04-23T18:04:18.869Z,18.40
2019-04-23T18:09:16.723Z,18.00
2019-04-23T18:11:29.991Z,17.80
2019-04-23T18:14:09.432Z,17.70
2019-04-23T18:19:12.381Z,17.50
2019-04-23T18:22:06.999Z,17.50
2019-04-23T18:24:50.310Z,17.30
2019-04-23T18:30:08.259Z,17.20
2019-04-23T18:33:14.033Z,17.20
2019-04-23T18:37:49.225Z,17.10
2019-04-23T18:40:21.376Z,17.00
2019-04-23T18:42:57.676Z,16.90
2019-04-23T18:45:32.108Z,16.70
2019-04-23T18:47:59.370Z,16.70
2019-04-23T18:50:42.232Z,16.60
2019-04-23T18:53:02.919Z,16.50
2019-04-23T18:55:50.371Z,16.60
2019-04-23T18:58:03.916Z,16.40
2019-04-23T19:00:51.685Z,16.40
2019-04-23T19:03:30.320Z,16.40
2019-04-23T19:08:51.541Z,16.20
2019-04-23T19:11:05.453Z,16.20
2019-04-23T19:13:39.746Z,16.20
2019-04-23T19:16:03.980Z,16.20
2019-04-23T19:18:45.175Z,16.30
2019-04-23T19:21:18.141Z,16.20
2019-04-23T19:23:50.004Z,16.20
2019-04-23T19:26:27.368Z,16.00
2019-04-23T19:34:02.865Z,15.70
2019-04-23T19:36:40.311Z,15.60
2019-04-23T19:39:03.219Z,15.60
2019-04-23T19:41:43.665Z,15.60
2019-04-23T19:44:08.446Z,15.50
2019-04-23T19:46:49.120Z,15.50
2019-04-23T19:51:41.585Z,15.50
2019-04-23T19:54:21.951Z,15.40
2019-04-23T19:59:13.875Z,15.30
2019-04-23T20:01:53.350Z,15.20
2019-04-23T20:04:21.767Z,15.10
2019-04-23T20:07:13.194Z,15.20
2019-04-23T20:11:57.462Z,15.00
2019-04-23T20:14:18.235Z,14.90
2019-04-23T20:17:17.602Z,14.90
2019-04-23T20:19:32.276Z,14.90
2019-04-23T20:24:28.538Z,14.90
2019-04-23T20:27:06.147Z,14.90
2019-04-23T20:29:52.181Z,14.80
2019-04-23T20:34:56.608Z,14.70
2019-04-23T20:37:23.340Z,14.80
2019-04-23T20:39:56.798Z,14.90
2019-04-23T20:47:15.586Z,14.70
2019-04-23T20:52:14.755Z,14.80
2019-04-23T20:57:45.556Z,14.80
2019-04-23T21:00:32.543Z,14.70
2019-04-23T21:03:18.165Z,14.70
2019-04-23T21:05:26.154Z,14.70
2019-04-23T21:10:34.005Z,14.40
2019-04-23T21:25:40.730Z,14.00
2019-04-23T21:33:15.769Z,14.10
2019-04-23T21:40:15.432Z,13.90
2019-04-23T21:41:32.965Z,13.90
2019-04-23T21:46:20.595Z,13.90
2019-04-23T21:53:53.183Z,14.00
2019-04-23T21:56:28.001Z,14.10
2019-04-23T22:06:36.953Z,14.00
2019-04-23T22:09:08.746Z,14.10
2019-04-23T22:16:52.033Z,14.30
2019-04-23T22:19:14.953Z,14.20
2019-04-23T22:24:05.615Z,14.10
2019-04-23T22:26:38.110Z,14.10
2019-04-23T22:34:17.200Z,14.30
2019-04-23T22:39:17.817Z,14.40
2019-04-23T22:41:56.056Z,14.50
2019-04-23T22:44:22.615Z,14.50
2019-04-23T22:46:59.561Z,14.50
2019-04-23T22:52:02.622Z,14.40
2019-04-23T22:54:22.965Z,14.20
2019-04-23T22:57:04.719Z,14.20
2019-04-23T23:02:12.837Z,14.10
2019-04-23T23:04:42.188Z,14.00
2019-04-23T23:07:17.819Z,14.10
2019-04-23T23:09:49.124Z,14.20
2019-04-23T23:12:36.546Z,14.30
2019-04-23T23:14:48.784Z,14.30
2019-04-23T23:17:16.261Z,14.30
2019-04-23T23:20:05.864Z,14.30
2019-04-23T23:22:28.113Z,14.30
2019-04-23T23:24:46.119Z,14.30
2019-04-23T23:27:31.617Z,14.30
2019-04-23T23:29:58.149Z,14.30
2019-04-23T23:32:23.279Z,14.30
2019-04-23T23:37:20.714Z,14.30
2019-04-23T23:39:56.980Z,14.30
2019-04-23T23:42:28.177Z,14.30
2019-04-23T23:45:02.137Z,14.30
2019-04-23T23:47:19.673Z,14.30
2019-04-23T23:50:04.276Z,14.30
2019-04-23T23:52:32.862Z,14.30
2019-04-23T23:55:07.760Z,14.20
